createdAt,value
2023-01-09T00:00:01.581Z,2.10
2023-01-09T00:00:12.371Z,2.00
2023-01-09T00:00:23.189Z,1.90
2023-01-09T00:00:34.045Z,1.80
2023-01-09T00:00:44.894Z,1.70
2023-01-09T00:00:55.623Z,1.60
2023-01-09T00:01:06.354Z,1.60
2023-01-09T00:01:18.509Z,1.60
2023-01-09T00:01:31.479Z,1.70
2023-01-09T00:01:44.218Z,1.80
2023-01-09T00:01:56.188Z,1.70
2023-01-09T00:02:07.002Z,1.70
2023-01-09T00:02:17.852Z,1.60
2023-01-09T00:02:28.675Z,1.80
2023-01-09T00:02:39.441Z,1.80
2023-01-09T00:02:50.150Z,1.50
2023-01-09T00:03:00.875Z,1.50
2023-01-09T00:03:11.641Z,1.50
2023-01-09T00:03:22.392Z,1.60
2023-01-09T00:03:33.191Z,1.80
2023-01-09T00:03:44.905Z,1.60
2023-01-09T00:03:55.655Z,1.70
2023-01-09T00:04:07.450Z,1.60
2023-01-09T00:04:18.220Z,1.60
2023-01-09T00:04:28.933Z,1.60
2023-01-09T00:04:39.664Z,1.50
2023-01-09T00:04:50.651Z,1.50
2023-01-09T00:05:01.614Z,1.60
2023-01-09T00:05:12.362Z,1.70
2023-01-09T00:05:23.120Z,1.70
2023-01-09T00:05:33.858Z,1.60
2023-01-09T00:05:44.835Z,1.60
2023-01-09T00:05:55.562Z,1.60
2023-01-09T00:06:06.337Z,1.50
2023-01-09T00:06:17.077Z,1.70
2023-01-09T00:06:27.820Z,1.80
2023-01-09T00:06:38.547Z,1.70
2023-01-09T00:06:50.715Z,1.50
2023-01-09T00:07:03.155Z,1.40
2023-01-09T00:07:13.939Z,1.50
2023-01-09T00:07:24.670Z,1.50
2023-01-09T00:07:35.403Z,1.50
2023-01-09T00:07:51.153Z,1.60
2023-01-09T00:08:04.395Z,1.60
2023-01-09T00:08:16.815Z,1.60
2023-01-09T00:08:27.546Z,1.80
2023-01-09T00:08:41.160Z,1.50
2023-01-09T00:08:51.894Z,1.40
2023-01-09T00:09:02.640Z,1.40
2023-01-09T00:09:13.395Z,1.40
2023-01-09T00:09:24.175Z,1.40
2023-01-09T00:09:36.600Z,1.40
2023-01-09T00:09:49.786Z,1.40
2023-01-09T00:10:01.532Z,1.40
2023-01-09T00:10:12.260Z,1.40
2023-01-09T00:10:24.470Z,1.40
2023-01-09T00:10:35.206Z,1.50
2023-01-09T00:10:45.951Z,1.80
2023-01-09T00:10:56.709Z,1.70
2023-01-09T00:11:10.912Z,1.60
2023-01-09T00:11:22.630Z,1.30
2023-01-09T00:11:33.378Z,1.50
2023-01-09T00:11:44.119Z,1.50
2023-01-09T00:12:00.261Z,1.50
2023-01-09T00:12:12.995Z,1.40
2023-01-09T00:12:24.703Z,1.20
2023-01-09T00:12:35.446Z,1.20
2023-01-09T00:12:48.077Z,1.20
2023-01-09T00:12:58.822Z,1.30
2023-01-09T00:13:09.557Z,1.40
2023-01-09T00:13:20.297Z,1.50
2023-01-09T00:13:31.030Z,1.40
2023-01-09T00:13:41.768Z,1.80
2023-01-09T00:13:52.499Z,1.80
2023-01-09T00:14:03.234Z,1.70
2023-01-09T00:14:13.969Z,1.40
2023-01-09T00:14:24.728Z,1.30
2023-01-09T00:14:35.460Z,1.40
2023-01-09T00:14:46.217Z,1.50
2023-01-09T00:14:56.927Z,2.10
2023-01-09T00:15:07.647Z,2.00
2023-01-09T00:15:18.387Z,1.90
2023-01-09T00:15:29.109Z,1.40
2023-01-09T00:15:39.867Z,1.40
2023-01-09T00:15:50.601Z,1.50
2023-01-09T00:16:01.327Z,1.50
2023-01-09T00:16:12.107Z,1.60
2023-01-09T00:16:24.565Z,1.80
2023-01-09T00:16:35.341Z,1.60
2023-01-09T00:16:46.090Z,1.80
2023-01-09T00:16:56.839Z,1.70
2023-01-09T00:17:10.329Z,1.50
2023-01-09T00:17:21.130Z,1.50
2023-01-09T00:17:33.556Z,1.50
2023-01-09T00:17:44.301Z,1.60
2023-01-09T00:17:55.041Z,1.40
2023-01-09T00:18:08.769Z,1.40
2023-01-09T00:18:22.238Z,1.30
2023-01-09T00:18:34.439Z,1.60
2023-01-09T00:18:45.204Z,1.50
2023-01-09T00:18:56.884Z,1.30
2023-01-09T00:19:07.619Z,1.40
2023-01-09T00:19:18.357Z,1.40
2023-01-09T00:19:30.770Z,1.40
2023-01-09T00:19:41.504Z,1.50
2023-01-09T00:19:52.251Z,1.50
2023-01-09T00:20:03.019Z,1.70
2023-01-09T00:20:13.742Z,1.70
2023-01-09T00:20:24.481Z,1.50
2023-01-09T00:20:35.226Z,1.40
2023-01-09T00:20:45.969Z,1.40
2023-01-09T00:20:56.713Z,1.40
2023-01-09T00:21:07.439Z,1.30
2023-01-09T00:21:18.215Z,1.30
2023-01-09T00:21:30.431Z,1.60
2023-01-09T00:21:42.910Z,1.70
2023-01-09T00:21:53.648Z,1.70
2023-01-09T00:22:04.409Z,1.40
2023-01-09T00:22:20.131Z,1.30
2023-01-09T00:22:33.370Z,1.30
2023-01-09T00:22:44.105Z,1.30
2023-01-09T00:22:54.884Z,1.30
2023-01-09T00:23:06.575Z,1.30
2023-01-09T00:23:17.311Z,1.20
2023-01-09T00:23:28.040Z,1.40
2023-01-09T00:23:38.772Z,1.40
2023-01-09T00:23:49.508Z,1.40
2023-01-09T00:24:00.239Z,1.50
2023-01-09T00:24:10.996Z,1.50
2023-01-09T00:24:21.723Z,1.60
2023-01-09T00:24:32.437Z,1.30
2023-01-09T00:24:44.881Z,1.20
2023-01-09T00:24:55.610Z,1.40
2023-01-09T00:25:06.387Z,1.40
2023-01-09T00:25:17.109Z,1.40
2023-01-09T00:25:27.842Z,1.50
2023-01-09T00:25:38.717Z,1.50
2023-01-09T00:25:49.420Z,2.00
2023-01-09T00:26:01.879Z,1.80
2023-01-09T00:26:12.618Z,1.70
2023-01-09T00:26:23.341Z,1.20
2023-01-09T00:26:34.111Z,1.70
2023-01-09T00:26:46.552Z,1.80
2023-01-09T00:26:57.287Z,1.70
2023-01-09T00:27:08.060Z,1.50
2023-01-09T00:27:18.810Z,1.20
2023-01-09T00:27:32.013Z,1.30
2023-01-09T00:27:44.437Z,1.40
2023-01-09T00:27:55.227Z,1.50
2023-01-09T00:28:05.978Z,1.40
2023-01-09T00:28:16.718Z,1.30
2023-01-09T00:28:29.495Z,1.20
2023-01-09T00:28:42.624Z,1.50
2023-01-09T00:28:55.058Z,1.50
2023-01-09T00:29:07.482Z,1.20
2023-01-09T00:29:18.210Z,1.20
2023-01-09T00:29:28.951Z,1.30
2023-01-09T00:29:39.697Z,1.50
2023-01-09T00:29:52.895Z,1.60
2023-01-09T00:30:03.647Z,1.60
2023-01-09T00:30:16.086Z,1.30
2023-01-09T00:30:26.833Z,1.30
2023-01-09T00:30:39.370Z,1.30
2023-01-09T00:30:50.115Z,1.30
2023-01-09T00:31:00.907Z,1.30
2023-01-09T00:31:11.623Z,1.60
2023-01-09T00:31:22.367Z,1.60
2023-01-09T00:31:33.092Z,1.60
2023-01-09T00:31:43.828Z,1.40
2023-01-09T00:31:55.531Z,1.40
2023-01-09T00:32:06.272Z,1.30
2023-01-09T00:32:17.001Z,1.40
2023-01-09T00:32:30.699Z,1.40
2023-01-09T00:32:43.941Z,1.50
2023-01-09T00:32:57.150Z,1.60
2023-01-09T00:33:09.583Z,1.60
2023-01-09T00:33:20.341Z,1.50
2023-01-09T00:33:31.067Z,1.60
2023-01-09T00:33:41.783Z,1.50
2023-01-09T00:33:52.532Z,1.60
2023-01-09T00:34:03.263Z,1.50
2023-01-09T00:34:13.996Z,1.40
2023-01-09T00:34:27.184Z,1.20
2023-01-09T00:34:37.923Z,1.30
2023-01-09T00:34:48.652Z,1.60
2023-01-09T00:34:59.387Z,1.60
2023-01-09T00:35:11.827Z,1.50
2023-01-09T00:35:22.561Z,1.30
2023-01-09T00:35:33.284Z,1.30
2023-01-09T00:35:44.011Z,1.20
2023-01-09T00:35:54.772Z,1.50
2023-01-09T00:36:05.527Z,1.60
2023-01-09T00:36:16.265Z,1.50
2023-01-09T00:36:26.992Z,1.40
2023-01-09T00:36:37.738Z,1.40
2023-01-09T00:36:48.453Z,1.30
2023-01-09T00:37:00.180Z,1.50
2023-01-09T00:37:10.922Z,1.60
2023-01-09T00:37:21.656Z,1.50
2023-01-09T00:37:32.418Z,1.40
2023-01-09T00:37:43.171Z,1.50
2023-01-09T00:37:53.930Z,1.40
2023-01-09T00:38:04.693Z,1.30
2023-01-09T00:38:16.403Z,1.30
2023-01-09T00:38:27.163Z,1.50
2023-01-09T00:38:37.914Z,1.60
2023-01-09T00:38:53.690Z,1.50
2023-01-09T00:39:06.136Z,1.30
2023-01-09T00:39:18.363Z,1.30
2023-01-09T00:39:31.557Z,1.50
2023-01-09T00:39:43.768Z,1.60
2023-01-09T00:39:54.495Z,1.70
2023-01-09T00:40:05.235Z,1.40
2023-01-09T00:40:15.972Z,1.50
2023-01-09T00:40:26.701Z,1.50
2023-01-09T00:40:38.422Z,1.50
2023-01-09T00:40:50.131Z,1.60
2023-01-09T00:41:01.863Z,1.70
2023-01-09T00:41:12.603Z,1.90
2023-01-09T00:41:25.558Z,2.00
2023-01-09T00:41:38.011Z,1.60
2023-01-09T00:41:48.772Z,1.50
2023-01-09T00:41:59.573Z,1.60
2023-01-09T00:42:10.316Z,1.50
2023-01-09T00:42:21.056Z,1.40
2023-01-09T00:42:31.805Z,1.30
2023-01-09T00:42:43.503Z,1.40
2023-01-09T00:42:57.203Z,1.40
2023-01-09T00:43:10.943Z,1.30
2023-01-09T00:43:21.766Z,1.40
2023-01-09T00:43:34.197Z,1.40
2023-01-09T00:43:46.619Z,1.30
2023-01-09T00:43:57.378Z,1.20
2023-01-09T00:44:08.101Z,1.20
2023-01-09T00:44:18.848Z,1.20
2023-01-09T00:44:31.549Z,1.20
2023-01-09T00:44:42.314Z,1.30
2023-01-09T00:44:53.042Z,1.40
2023-01-09T00:45:03.791Z,1.40
2023-01-09T00:45:14.508Z,1.40
2023-01-09T00:45:25.375Z,1.80
2023-01-09T00:45:36.105Z,1.90
2023-01-09T00:45:46.877Z,2.00
2023-01-09T00:45:57.674Z,1.50
2023-01-09T00:46:08.522Z,1.40
2023-01-09T00:46:20.271Z,1.40
2023-01-09T00:46:31.024Z,1.40
2023-01-09T00:46:42.735Z,1.50
2023-01-09T00:46:53.476Z,1.50
2023-01-09T00:47:04.211Z,1.50
2023-01-09T00:47:15.896Z,1.50
2023-01-09T00:47:28.335Z,1.50
2023-01-09T00:47:39.101Z,1.40
2023-01-09T00:47:49.876Z,1.50
2023-01-09T00:48:00.607Z,1.50
2023-01-09T00:48:11.378Z,1.50
2023-01-09T00:48:22.135Z,1.50
2023-01-09T00:48:33.834Z,1.60
2023-01-09T00:48:44.569Z,1.60
2023-01-09T00:48:55.295Z,1.60
2023-01-09T00:49:09.062Z,1.60
2023-01-09T00:49:21.804Z,1.50
2023-01-09T00:49:32.545Z,1.60
2023-01-09T00:49:43.285Z,1.60
2023-01-09T00:49:54.035Z,1.70
2023-01-09T00:50:06.504Z,1.50
2023-01-09T00:50:17.228Z,1.40
2023-01-09T00:50:29.658Z,1.60
2023-01-09T00:50:40.385Z,1.60
2023-01-09T00:50:52.093Z,1.50
2023-01-09T00:51:02.876Z,1.40
2023-01-09T00:51:13.633Z,1.30
2023-01-09T00:51:24.398Z,1.30
2023-01-09T00:51:35.144Z,1.30
2023-01-09T00:51:47.343Z,1.50
2023-01-09T00:51:58.081Z,1.40
2023-01-09T00:52:10.520Z,1.50
2023-01-09T00:52:21.268Z,1.30
2023-01-09T00:52:34.208Z,1.20
2023-01-09T00:52:44.917Z,1.50
2023-01-09T00:52:55.690Z,1.50
2023-01-09T00:53:08.148Z,1.60
2023-01-09T00:53:20.409Z,1.40
2023-01-09T00:53:34.126Z,1.40
2023-01-09T00:53:44.896Z,1.50
2023-01-09T00:53:58.117Z,1.50
2023-01-09T00:54:10.555Z,1.40
2023-01-09T00:54:21.278Z,1.30
2023-01-09T00:54:32.022Z,1.40
2023-01-09T00:54:42.758Z,1.60
2023-01-09T00:54:53.487Z,1.60
2023-01-09T00:55:04.231Z,1.60
2023-01-09T00:55:14.995Z,1.60
2023-01-09T00:55:26.795Z,1.70
2023-01-09T00:55:38.518Z,1.60
2023-01-09T00:55:49.319Z,1.80
2023-01-09T00:56:01.747Z,1.70
2023-01-09T00:56:12.528Z,2.10
2023-01-09T00:56:23.295Z,1.90
2023-01-09T00:56:34.039Z,1.90
2023-01-09T00:56:44.815Z,1.60
2023-01-09T00:56:56.537Z,1.50
2023-01-09T00:57:07.301Z,1.40
2023-01-09T00:57:19.757Z,1.30
2023-01-09T00:57:30.518Z,1.20
2023-01-09T00:57:41.248Z,1.90
2023-01-09T00:57:52.004Z,1.90
2023-01-09T00:58:03.712Z,1.50
2023-01-09T00:58:14.450Z,1.40
2023-01-09T00:58:25.185Z,1.40
2023-01-09T00:58:35.929Z,1.20
2023-01-09T00:58:46.689Z,1.10
2023-01-09T00:58:58.408Z,1.20
2023-01-09T00:59:09.149Z,1.20
2023-01-09T00:59:19.921Z,1.40
2023-01-09T00:59:32.663Z,1.50
2023-01-09T00:59:45.175Z,1.60
2023-01-09T00:59:57.626Z,1.50
2023-01-09T01:00:10.104Z,1.30
2023-01-09T01:00:20.897Z,1.50
2023-01-09T01:00:31.628Z,1.50
2023-01-09T01:00:43.840Z,1.50
2023-01-09T01:00:55.592Z,1.50
2023-01-09T01:01:06.682Z,1.50
2023-01-09T01:01:17.549Z,1.50
2023-01-09T01:01:29.382Z,1.50
2023-01-09T01:01:40.207Z,1.50
2023-01-09T01:01:53.205Z,1.50
2023-01-09T01:02:04.206Z,1.60
2023-01-09T01:02:15.184Z,1.50
2023-01-09T01:02:28.120Z,1.50
2023-01-09T01:02:39.961Z,1.60
2023-01-09T01:02:50.817Z,1.80
2023-01-09T01:03:01.691Z,1.80
2023-01-09T01:03:12.521Z,1.70
2023-01-09T01:03:23.291Z,1.80
2023-01-09T01:03:34.098Z,1.60
2023-01-09T01:03:45.866Z,1.60
2023-01-09T01:03:56.673Z,1.70
2023-01-09T01:04:07.464Z,1.70
2023-01-09T01:04:18.218Z,1.70
2023-01-09T01:04:28.977Z,2.00
2023-01-09T01:04:39.711Z,1.90
2023-01-09T01:04:50.450Z,1.80
2023-01-09T01:05:01.242Z,1.50
2023-01-09T01:05:12.032Z,1.50
2023-01-09T01:05:22.799Z,1.50
2023-01-09T01:05:33.571Z,1.40
2023-01-09T01:05:45.309Z,1.40
2023-01-09T01:05:56.077Z,1.50
2023-01-09T01:06:06.859Z,1.40
2023-01-09T01:06:17.629Z,1.50
2023-01-09T01:06:28.378Z,1.50
2023-01-09T01:06:40.069Z,1.60
2023-01-09T01:06:51.805Z,1.50
2023-01-09T01:07:02.621Z,1.50
2023-01-09T01:07:14.351Z,1.50
2023-01-09T01:07:25.094Z,1.50
2023-01-09T01:07:35.862Z,1.40
2023-01-09T01:07:48.311Z,1.40
2023-01-09T01:07:59.063Z,1.50
2023-01-09T01:08:09.810Z,1.40
2023-01-09T01:08:20.575Z,1.50
2023-01-09T01:08:31.301Z,1.50
2023-01-09T01:08:42.046Z,1.70
2023-01-09T01:08:52.785Z,1.70
2023-01-09T01:09:04.394Z,1.60
2023-01-09T01:09:15.172Z,1.50
2023-01-09T01:09:25.892Z,1.60
2023-01-09T01:09:37.609Z,1.50
2023-01-09T01:09:48.350Z,1.60
2023-01-09T01:09:59.114Z,1.50
2023-01-09T01:10:09.941Z,1.50
2023-01-09T01:10:20.692Z,1.50
2023-01-09T01:10:31.451Z,1.60
2023-01-09T01:10:42.193Z,1.60
2023-01-09T01:10:52.922Z,1.90
2023-01-09T01:11:03.653Z,1.80
2023-01-09T01:11:14.381Z,1.90
2023-01-09T01:11:25.110Z,1.70
2023-01-09T01:11:35.872Z,1.70
2023-01-09T01:11:46.587Z,1.60
2023-01-09T01:11:57.324Z,1.50
2023-01-09T01:12:08.090Z,1.50
2023-01-09T01:12:18.812Z,1.80
2023-01-09T01:12:29.548Z,2.00
2023-01-09T01:12:40.300Z,2.10
2023-01-09T01:12:52.027Z,2.10
2023-01-09T01:13:02.841Z,1.70
2023-01-09T01:13:15.254Z,1.80
2023-01-09T01:13:26.025Z,1.80
2023-01-09T01:13:38.475Z,2.00
2023-01-09T01:13:49.225Z,2.40
2023-01-09T01:14:00.924Z,2.40
2023-01-09T01:14:11.671Z,2.50
2023-01-09T01:14:22.460Z,2.00
2023-01-09T01:14:33.270Z,2.00
2023-01-09T01:14:44.024Z,1.90
2023-01-09T01:14:55.739Z,1.70
2023-01-09T01:15:06.491Z,1.60
2023-01-09T01:15:17.230Z,1.60
2023-01-09T01:15:27.963Z,1.60
2023-01-09T01:15:38.693Z,1.50
2023-01-09T01:15:50.422Z,1.60
2023-01-09T01:16:03.352Z,1.70
2023-01-09T01:16:15.869Z,1.70
2023-01-09T01:16:28.301Z,1.70
2023-01-09T01:16:40.796Z,1.80
2023-01-09T01:16:51.593Z,2.00
2023-01-09T01:17:03.377Z,2.10
2023-01-09T01:17:15.652Z,1.90
2023-01-09T01:17:27.448Z,1.90
2023-01-09T01:17:38.195Z,1.90
2023-01-09T01:17:48.946Z,2.00
2023-01-09T01:18:01.138Z,2.20
2023-01-09T01:18:11.913Z,1.90
2023-01-09T01:18:22.665Z,1.60
2023-01-09T01:18:33.415Z,1.60
2023-01-09T01:18:44.149Z,1.80
2023-01-09T01:18:54.923Z,1.90
2023-01-09T01:19:05.671Z,1.80
2023-01-09T01:19:16.403Z,1.80
2023-01-09T01:19:28.177Z,1.70
2023-01-09T01:19:38.902Z,2.00
2023-01-09T01:19:49.645Z,2.00
2023-01-09T01:20:00.393Z,2.10
2023-01-09T01:20:11.152Z,2.00
2023-01-09T01:20:21.896Z,2.10
2023-01-09T01:20:32.656Z,2.30
2023-01-09T01:20:45.109Z,2.30
2023-01-09T01:20:55.824Z,2.20
2023-01-09T01:21:06.562Z,2.40
2023-01-09T01:21:19.765Z,2.40
2023-01-09T01:21:30.493Z,2.30
2023-01-09T01:21:41.214Z,2.40
2023-01-09T01:21:51.947Z,2.30
2023-01-09T01:22:02.799Z,2.30
2023-01-09T01:22:13.540Z,1.90
2023-01-09T01:22:24.313Z,1.80
2023-01-09T01:22:35.078Z,1.90
2023-01-09T01:22:45.845Z,2.00
2023-01-09T01:22:56.573Z,2.10
2023-01-09T01:23:07.302Z,1.90
2023-01-09T01:23:21.022Z,1.80
2023-01-09T01:23:31.772Z,1.90
2023-01-09T01:23:45.481Z,2.00
2023-01-09T01:23:57.174Z,2.10
2023-01-09T01:24:07.935Z,2.00
2023-01-09T01:24:20.645Z,1.80
2023-01-09T01:24:31.364Z,1.80
2023-01-09T01:24:43.794Z,1.90
2023-01-09T01:24:54.561Z,1.80
2023-01-09T01:25:05.352Z,1.80
2023-01-09T01:25:17.790Z,1.90
2023-01-09T01:25:28.528Z,2.00
2023-01-09T01:25:39.287Z,2.20
2023-01-09T01:25:50.979Z,2.20
2023-01-09T01:26:01.720Z,2.10
2023-01-09T01:26:12.498Z,2.00
2023-01-09T01:26:27.208Z,2.20
2023-01-09T01:26:39.424Z,2.20
2023-01-09T01:26:51.665Z,2.00
2023-01-09T01:27:02.407Z,2.10
2023-01-09T01:27:13.149Z,2.20
2023-01-09T01:27:27.372Z,2.10
2023-01-09T01:27:40.097Z,2.10
2023-01-09T01:27:52.558Z,2.10
2023-01-09T01:28:03.310Z,1.90
2023-01-09T01:28:15.988Z,1.90
2023-01-09T01:28:27.705Z,2.00
2023-01-09T01:28:40.154Z,2.00
2023-01-09T01:28:50.899Z,2.00
2023-01-09T01:29:01.632Z,2.00
2023-01-09T01:29:12.358Z,2.10
2023-01-09T01:29:23.129Z,2.10
2023-01-09T01:29:33.857Z,2.00
2023-01-09T01:29:44.641Z,1.90
2023-01-09T01:29:55.366Z,1.90
2023-01-09T01:30:06.096Z,1.90
2023-01-09T01:30:18.579Z,2.00
2023-01-09T01:30:31.082Z,2.00
2023-01-09T01:30:41.848Z,1.90
2023-01-09T01:30:52.686Z,2.20
2023-01-09T01:31:03.437Z,2.10
2023-01-09T01:31:15.136Z,2.10
2023-01-09T01:31:25.875Z,2.00
2023-01-09T01:31:37.565Z,1.90
2023-01-09T01:31:48.291Z,2.00
2023-01-09T01:31:59.048Z,2.20
2023-01-09T01:32:09.771Z,2.40
2023-01-09T01:32:20.501Z,2.20
2023-01-09T01:32:31.229Z,2.00
2023-01-09T01:32:41.975Z,2.00
2023-01-09T01:32:52.747Z,2.30
2023-01-09T01:33:03.479Z,2.30
2023-01-09T01:33:14.232Z,2.60
2023-01-09T01:33:24.952Z,2.40
2023-01-09T01:33:38.418Z,2.20
2023-01-09T01:33:49.199Z,2.00
2023-01-09T01:34:01.664Z,1.90
2023-01-09T01:34:12.430Z,1.90
2023-01-09T01:34:23.166Z,2.00
2023-01-09T01:34:34.886Z,2.30
2023-01-09T01:34:47.592Z,2.20
2023-01-09T01:34:59.531Z,2.10
2023-01-09T01:35:11.227Z,2.10
2023-01-09T01:35:23.167Z,2.00
2023-01-09T01:35:34.866Z,1.70
2023-01-09T01:35:45.626Z,1.80
2023-01-09T01:35:58.808Z,2.10
2023-01-09T01:36:09.551Z,2.20
2023-01-09T01:36:21.212Z,2.20
2023-01-09T01:36:33.720Z,2.00
2023-01-09T01:36:44.773Z,2.10
2023-01-09T01:36:57.199Z,2.00
2023-01-09T01:37:09.624Z,1.90
2023-01-09T01:37:22.329Z,1.90
2023-01-09T01:37:33.056Z,1.90
2023-01-09T01:37:45.338Z,2.00
2023-01-09T01:37:59.049Z,2.50
2023-01-09T01:38:11.799Z,2.60
2023-01-09T01:38:22.804Z,1.70
2023-01-09T01:38:35.269Z,1.80
2023-01-09T01:38:47.704Z,1.80
2023-01-09T01:38:59.399Z,1.80
2023-01-09T01:39:10.124Z,1.80
2023-01-09T01:39:20.891Z,1.70
2023-01-09T01:39:31.610Z,1.90
2023-01-09T01:39:42.361Z,2.00
2023-01-09T01:39:53.100Z,2.00
2023-01-09T01:40:04.812Z,2.00
2023-01-09T01:40:15.541Z,2.10
2023-01-09T01:40:26.310Z,1.90
2023-01-09T01:40:38.772Z,1.80
2023-01-09T01:40:49.520Z,2.00
2023-01-09T01:41:00.261Z,2.10
2023-01-09T01:41:11.037Z,2.10
2023-01-09T01:41:22.711Z,2.10
2023-01-09T01:41:33.486Z,2.10
2023-01-09T01:41:44.216Z,2.40
2023-01-09T01:41:54.956Z,2.80
2023-01-09T01:42:05.691Z,2.70
2023-01-09T01:42:16.479Z,2.50
2023-01-09T01:42:27.193Z,2.10
2023-01-09T01:42:37.921Z,2.10
2023-01-09T01:42:48.673Z,2.10
2023-01-09T01:42:59.423Z,2.20
2023-01-09T01:43:10.411Z,1.90
2023-01-09T01:43:21.141Z,1.90
2023-01-09T01:43:31.886Z,2.00
2023-01-09T01:43:42.611Z,2.30
2023-01-09T01:43:55.067Z,2.30
2023-01-09T01:44:08.261Z,2.40
2023-01-09T01:44:22.483Z,2.10
2023-01-09T01:44:33.231Z,2.20
2023-01-09T01:44:43.970Z,2.40
2023-01-09T01:44:55.691Z,2.20
2023-01-09T01:45:06.426Z,2.20
2023-01-09T01:45:18.864Z,2.20
2023-01-09T01:45:31.281Z,2.10
2023-01-09T01:45:42.074Z,2.20
2023-01-09T01:45:52.845Z,2.30
2023-01-09T01:46:03.615Z,2.40
2023-01-09T01:46:14.356Z,2.30
2023-01-09T01:46:25.071Z,2.20
2023-01-09T01:46:35.811Z,2.20
2023-01-09T01:46:46.560Z,2.30
2023-01-09T01:46:57.322Z,2.20
2023-01-09T01:47:12.072Z,2.20
2023-01-09T01:47:22.817Z,2.30
2023-01-09T01:47:35.270Z,2.40
2023-01-09T01:47:45.991Z,2.20
2023-01-09T01:47:56.725Z,2.10
2023-01-09T01:48:09.939Z,2.40
2023-01-09T01:48:22.204Z,2.30
2023-01-09T01:48:34.644Z,2.40
2023-01-09T01:48:45.374Z,2.40
2023-01-09T01:48:57.102Z,2.30
2023-01-09T01:49:08.810Z,2.20
2023-01-09T01:49:20.569Z,2.10
2023-01-09T01:49:31.288Z,2.10
2023-01-09T01:49:42.308Z,2.30
2023-01-09T01:49:53.054Z,2.30
2023-01-09T01:50:03.798Z,2.40
2023-01-09T01:50:14.515Z,2.40
2023-01-09T01:50:28.226Z,2.30
2023-01-09T01:50:38.958Z,2.30
2023-01-09T01:50:49.683Z,2.00
2023-01-09T01:51:01.408Z,1.90
2023-01-09T01:51:13.588Z,2.10
2023-01-09T01:51:24.314Z,2.40
2023-01-09T01:51:36.075Z,2.50
2023-01-09T01:51:46.811Z,2.00
2023-01-09T01:51:57.584Z,2.10
2023-01-09T01:52:08.315Z,2.10
2023-01-09T01:52:21.653Z,2.10
2023-01-09T01:52:32.382Z,2.10
2023-01-09T01:52:43.129Z,2.00
2023-01-09T01:52:53.852Z,2.10
2023-01-09T01:53:04.607Z,2.30
2023-01-09T01:53:15.337Z,2.20
2023-01-09T01:53:26.058Z,2.10
2023-01-09T01:53:36.824Z,2.00
2023-01-09T01:53:47.558Z,2.20
2023-01-09T01:53:58.294Z,2.40
2023-01-09T01:54:09.034Z,2.40
2023-01-09T01:54:21.529Z,2.00
2023-01-09T01:54:32.296Z,2.20
2023-01-09T01:54:44.725Z,2.30
2023-01-09T01:54:55.458Z,2.10
2023-01-09T01:55:06.188Z,1.90
2023-01-09T01:55:19.185Z,2.00
2023-01-09T01:55:29.934Z,2.10
2023-01-09T01:55:41.685Z,2.00
2023-01-09T01:55:54.134Z,1.90
2023-01-09T01:56:05.824Z,2.00
2023-01-09T01:56:16.575Z,1.90
2023-01-09T01:56:27.334Z,1.90
2023-01-09T01:56:38.079Z,2.00
2023-01-09T01:56:48.821Z,2.10
2023-01-09T01:57:00.514Z,2.40
2023-01-09T01:57:12.948Z,2.30
2023-01-09T01:57:28.170Z,2.10
2023-01-09T01:57:40.626Z,2.00
2023-01-09T01:57:53.077Z,1.80
2023-01-09T01:58:03.815Z,1.80
2023-01-09T01:58:14.544Z,1.80
2023-01-09T01:58:26.797Z,2.00
2023-01-09T01:58:39.542Z,2.20
2023-01-09T01:58:52.070Z,2.20
2023-01-09T01:59:02.785Z,2.20
2023-01-09T01:59:15.224Z,2.20
2023-01-09T01:59:27.211Z,2.10
2023-01-09T01:59:37.943Z,2.10
2023-01-09T01:59:48.665Z,2.10
2023-01-09T01:59:59.409Z,2.00
2023-01-09T02:00:10.139Z,2.00
2023-01-09T02:00:20.909Z,1.90
2023-01-09T02:00:31.675Z,2.10
2023-01-09T02:00:43.382Z,2.00
2023-01-09T02:00:54.207Z,1.80
2023-01-09T02:01:05.086Z,2.10
2023-01-09T02:01:16.956Z,2.20
2023-01-09T02:01:27.816Z,1.90
2023-01-09T02:01:38.836Z,1.90
2023-01-09T02:01:49.741Z,2.00
2023-01-09T02:02:00.680Z,2.00
2023-01-09T02:02:11.610Z,1.90
2023-01-09T02:02:22.658Z,1.90
2023-01-09T02:02:33.454Z,1.80
2023-01-09T02:02:46.715Z,1.90
2023-01-09T02:02:57.514Z,1.80
2023-01-09T02:03:08.222Z,1.90
2023-01-09T02:03:18.997Z,2.20
2023-01-09T02:03:29.716Z,2.20
2023-01-09T02:03:40.457Z,2.30
2023-01-09T02:03:52.156Z,2.00
2023-01-09T02:04:02.921Z,2.00
2023-01-09T02:04:13.647Z,1.90
2023-01-09T02:04:26.097Z,1.90
2023-01-09T02:04:39.302Z,2.20
2023-01-09T02:04:50.079Z,2.30
2023-01-09T02:05:02.785Z,1.90
2023-01-09T02:05:13.556Z,1.90
2023-01-09T02:05:24.276Z,1.90
2023-01-09T02:05:36.018Z,2.00
2023-01-09T02:05:46.754Z,2.10
2023-01-09T02:05:58.929Z,2.10
2023-01-09T02:06:10.616Z,2.00
2023-01-09T02:06:21.346Z,2.00
2023-01-09T02:06:33.818Z,1.90
2023-01-09T02:06:47.043Z,2.10
2023-01-09T02:07:23.159Z,0.00
2023-01-09T02:07:35.614Z,1.90
2023-01-09T02:07:50.825Z,2.00
2023-01-09T02:08:02.550Z,2.00
2023-01-09T02:08:15.496Z,2.20
2023-01-09T02:08:26.218Z,2.20
2023-01-09T02:08:36.939Z,2.20
2023-01-09T02:08:51.648Z,2.30
2023-01-09T02:09:04.872Z,2.40
2023-01-09T02:09:16.573Z,2.10
2023-01-09T02:09:27.315Z,2.00
2023-01-09T02:09:38.080Z,2.10
2023-01-09T02:09:50.320Z,2.00
2023-01-09T02:10:01.062Z,2.00
2023-01-09T02:10:11.831Z,2.00
2023-01-09T02:10:22.563Z,1.90
2023-01-09T02:10:33.302Z,1.90
2023-01-09T02:10:44.044Z,2.00
2023-01-09T02:10:54.795Z,2.00
2023-01-09T02:11:07.220Z,1.90
2023-01-09T02:11:17.972Z,1.90
2023-01-09T02:11:28.702Z,2.00
2023-01-09T02:11:41.142Z,2.00
2023-01-09T02:11:54.341Z,2.00
2023-01-09T02:12:06.043Z,1.80
2023-01-09T02:12:19.257Z,1.80
2023-01-09T02:12:30.010Z,1.90
2023-01-09T02:12:40.775Z,1.90
2023-01-09T02:12:51.503Z,2.00
2023-01-09T02:13:03.960Z,1.90
2023-01-09T02:13:14.709Z,2.10
2023-01-09T02:13:25.424Z,2.20
2023-01-09T02:13:36.166Z,2.30
2023-01-09T02:13:46.906Z,2.10
2023-01-09T02:13:57.631Z,2.00
2023-01-09T02:14:08.363Z,2.00
2023-01-09T02:14:19.113Z,2.00
2023-01-09T02:14:29.863Z,1.90
2023-01-09T02:14:40.603Z,1.90
2023-01-09T02:14:51.344Z,1.90
2023-01-09T02:15:03.835Z,2.20
2023-01-09T02:15:17.031Z,2.10
2023-01-09T02:15:28.766Z,2.10
2023-01-09T02:15:39.518Z,2.10
2023-01-09T02:15:53.041Z,2.50
2023-01-09T02:16:03.837Z,2.40
2023-01-09T02:16:14.646Z,2.50
2023-01-09T02:16:25.443Z,2.20
2023-01-09T02:16:38.653Z,2.30
2023-01-09T02:16:49.447Z,1.90
2023-01-09T02:17:00.171Z,2.00
2023-01-09T02:17:10.907Z,2.10
2023-01-09T02:17:21.710Z,2.20
2023-01-09T02:17:32.442Z,2.00
2023-01-09T02:17:43.200Z,1.90
2023-01-09T02:17:54.931Z,1.80
2023-01-09T02:18:11.577Z,2.00
2023-01-09T02:18:24.273Z,2.10
2023-01-09T02:18:36.992Z,2.10
2023-01-09T02:18:47.726Z,2.10
2023-01-09T02:18:58.443Z,2.10
2023-01-09T02:19:10.177Z,2.10
2023-01-09T02:19:25.895Z,2.20
2023-01-09T02:19:38.383Z,2.20
2023-01-09T02:19:49.119Z,2.10
2023-01-09T02:19:59.871Z,2.00
2023-01-09T02:20:10.654Z,2.10
2023-01-09T02:20:21.395Z,2.00
2023-01-09T02:20:32.136Z,1.90
2023-01-09T02:20:42.879Z,2.30
2023-01-09T02:20:53.602Z,2.50
2023-01-09T02:21:04.353Z,2.70
2023-01-09T02:21:15.084Z,2.40
2023-01-09T02:21:26.802Z,2.40
2023-01-09T02:21:37.555Z,2.30
2023-01-09T02:21:48.293Z,2.20
2023-01-09T02:21:59.995Z,2.10
2023-01-09T02:22:12.722Z,2.10
2023-01-09T02:22:23.515Z,2.00
2023-01-09T02:22:35.227Z,2.20
2023-01-09T02:22:45.987Z,2.10
2023-01-09T02:22:57.710Z,2.10
2023-01-09T02:23:09.418Z,2.00
2023-01-09T02:23:21.619Z,2.00
2023-01-09T02:23:32.345Z,2.10
2023-01-09T02:23:43.087Z,2.20
2023-01-09T02:23:54.795Z,2.10
2023-01-09T02:24:05.529Z,2.00
2023-01-09T02:24:16.278Z,2.00
2023-01-09T02:24:26.994Z,2.10
2023-01-09T02:24:39.449Z,2.10
2023-01-09T02:24:50.215Z,2.10
2023-01-09T02:25:01.212Z,2.00
2023-01-09T02:25:11.946Z,2.20
2023-01-09T02:25:25.179Z,2.20
2023-01-09T02:25:37.654Z,2.20
2023-01-09T02:25:50.139Z,2.00
2023-01-09T02:26:00.855Z,2.00
2023-01-09T02:26:11.628Z,2.10
2023-01-09T02:26:24.048Z,2.00
2023-01-09T02:26:34.784Z,2.10
2023-01-09T02:26:48.012Z,2.00
2023-01-09T02:26:58.754Z,2.10
2023-01-09T02:27:09.477Z,2.50
2023-01-09T02:27:20.245Z,2.60
2023-01-09T02:27:31.001Z,2.50
2023-01-09T02:27:41.745Z,2.30
2023-01-09T02:27:52.498Z,2.30
2023-01-09T02:28:04.944Z,2.20
2023-01-09T02:28:17.176Z,2.00
2023-01-09T02:28:32.422Z,1.90
2023-01-09T02:28:44.364Z,2.00
2023-01-09T02:28:56.789Z,2.20
2023-01-09T02:29:07.517Z,2.20
2023-01-09T02:29:18.258Z,2.20
2023-01-09T02:29:31.974Z,2.30
2023-01-09T02:29:44.708Z,2.10
2023-01-09T02:29:57.428Z,1.90
2023-01-09T02:30:08.157Z,2.00
2023-01-09T02:30:18.900Z,2.00
2023-01-09T02:30:32.332Z,2.00
2023-01-09T02:30:44.039Z,1.90
2023-01-09T02:30:54.808Z,2.10
2023-01-09T02:31:05.579Z,2.20
2023-01-09T02:31:18.067Z,2.50
2023-01-09T02:31:28.824Z,2.30
2023-01-09T02:31:39.602Z,2.30